sensor_id;sensor_type;location;lat;lon;timestamp;pressure;altitude;pressure_sealevel;temperature;humidity
46448;BME280;32145;50.390;30.778;2024-03-29T00:02:32;98933.69;;;7.65;84.45
46448;BME280;32145;50.390;30.778;2024-03-29T00:05:29;98927.28;;;7.54;84.40
46448;BME280;32145;50.390;30.778;2024-03-29T00:08:25;98921.66;;;7.44;84.14
46448;BME280;32145;50.390;30.778;2024-03-29T00:11:21;98927.66;;;7.34;84.30
46448;BME280;32145;50.390;30.778;2024-03-29T00:14:19;98936.56;;;7.22;84.25
46448;BME280;32145;50.390;30.778;2024-03-29T00:17:15;98938.31;;;7.05;83.99
46448;BME280;32145;50.390;30.778;2024-03-29T00:20:12;98939.72;;;6.95;83.68
46448;BME280;32145;50.390;30.778;2024-03-29T00:23:08;98933.72;;;6.93;84.43
46448;BME280;32145;50.390;30.778;2024-03-29T00:26:04;98932.91;;;6.93;84.10
46448;BME280;32145;50.390;30.778;2024-03-29T00:29:01;98928.00;;;6.90;84.68
46448;BME280;32145;50.390;30.778;2024-03-29T00:31:59;98927.88;;;6.85;84.31
46448;BME280;32145;50.390;30.778;2024-03-29T00:34:55;98928.22;;;6.76;84.29
46448;BME280;32145;50.390;30.778;2024-03-29T00:37:51;98925.88;;;6.68;83.82
46448;BME280;32145;50.390;30.778;2024-03-29T00:40:48;98930.03;;;6.64;84.10
46448;BME280;32145;50.390;30.778;2024-03-29T00:43:44;98926.06;;;6.54;84.08
46448;BME280;32145;50.390;30.778;2024-03-29T00:46:41;98926.38;;;6.46;83.63
46448;BME280;32145;50.390;30.778;2024-03-29T00:49:38;98939.72;;;6.41;83.73
46448;BME280;32145;50.390;30.778;2024-03-29T00:52:33;98943.78;;;6.31;83.63
46448;BME280;32145;50.390;30.778;2024-03-29T00:55:27;98947.38;;;6.25;83.54
46448;BME280;32145;50.390;30.778;2024-03-29T00:58:21;98941.16;;;6.25;83.45
46448;BME280;32145;50.390;30.778;2024-03-29T01:01:16;98940.13;;;6.26;84.47
46448;BME280;32145;50.390;30.778;2024-03-29T01:04:10;98933.94;;;6.25;84.20
46448;BME280;32145;50.390;30.778;2024-03-29T01:07:06;98931.81;;;6.27;84.28
46448;BME280;32145;50.390;30.778;2024-03-29T01:10:00;98927.94;;;6.23;83.91
46448;BME280;32145;50.390;30.778;2024-03-29T01:12:54;98936.47;;;6.20;84.52
46448;BME280;32145;50.390;30.778;2024-03-29T01:15:49;98933.88;;;6.13;84.12
46448;BME280;32145;50.390;30.778;2024-03-29T01:18:45;98933.50;;;6.10;84.09
46448;BME280;32145;50.390;30.778;2024-03-29T01:21:41;98935.03;;;6.05;83.92
46448;BME280;32145;50.390;30.778;2024-03-29T01:24:39;98943.72;;;6.01;83.65
46448;BME280;32145;50.390;30.778;2024-03-29T01:27:36;98947.69;;;5.98;84.18
46448;BME280;32145;50.390;30.778;2024-03-29T01:30:32;98940.91;;;5.96;83.33
46448;BME280;32145;50.390;30.778;2024-03-29T01:33:28;98939.50;;;5.93;83.55
46448;BME280;32145;50.390;30.778;2024-03-29T01:36:24;98942.63;;;5.90;83.64
46448;BME280;32145;50.390;30.778;2024-03-29T01:39:21;98946.38;;;5.89;83.50
46448;BME280;32145;50.390;30.778;2024-03-29T01:42:16;98947.63;;;5.86;83.79
46448;BME280;32145;50.390;30.778;2024-03-29T01:45:11;98947.63;;;5.86;83.36
46448;BME280;32145;50.390;30.778;2024-03-29T01:48:06;98932.69;;;5.90;83.78
46448;BME280;32145;50.390;30.778;2024-03-29T01:51:01;98934.03;;;6.00;83.65
46448;BME280;32145;50.390;30.778;2024-03-29T01:53:56;98943.22;;;6.11;84.17
46448;BME280;32145;50.390;30.778;2024-03-29T01:56:50;98946.66;;;6.18;85.07
46448;BME280;32145;50.390;30.778;2024-03-29T01:59:46;98955.91;;;6.22;84.42
46448;BME280;32145;50.390;30.778;2024-03-29T02:02:41;98945.16;;;6.22;84.83
46448;BME280;32145;50.390;30.778;2024-03-29T02:05:35;98947.38;;;6.25;85.06
46448;BME280;32145;50.390;30.778;2024-03-29T02:08:33;98947.16;;;6.27;84.72
46448;BME280;32145;50.390;30.778;2024-03-29T02:11:28;98950.09;;;6.25;84.55
46448;BME280;32145;50.390;30.778;2024-03-29T02:14:22;98952.16;;;6.23;84.93
46448;BME280;32145;50.390;30.778;2024-03-29T02:17:18;98954.28;;;6.21;84.46
46448;BME280;32145;50.390;30.778;2024-03-29T02:20:12;98951.19;;;6.17;84.46
46448;BME280;32145;50.390;30.778;2024-03-29T02:23:10;98959.75;;;6.14;84.92
46448;BME280;32145;50.390;30.778;2024-03-29T02:26:06;98962.66;;;6.13;84.69
46448;BME280;32145;50.390;30.778;2024-03-29T02:29:01;98952.94;;;6.12;84.60
46448;BME280;32145;50.390;30.778;2024-03-29T02:31:55;98957.28;;;6.13;84.61
46448;BME280;32145;50.390;30.778;2024-03-29T02:34:50;98956.69;;;6.11;84.60
46448;BME280;32145;50.390;30.778;2024-03-29T02:37:46;98944.84;;;6.12;84.70
46448;BME280;32145;50.390;30.778;2024-03-29T02:40:42;98941.13;;;6.13;84.50
46448;BME280;32145;50.390;30.778;2024-03-29T02:43:40;98941.13;;;6.13;84.16
46448;BME280;32145;50.390;30.778;2024-03-29T02:46:36;98947.31;;;6.13;84.39
46448;BME280;32145;50.390;30.778;2024-03-29T02:49:32;98941.13;;;6.13;84.57
46448;BME280;32145;50.390;30.778;2024-03-29T02:52:28;98951.06;;;6.12;84.16
46448;BME280;32145;50.390;30.778;2024-03-29T02:55:24;98939.47;;;6.12;84.92
46448;BME280;32145;50.390;30.778;2024-03-29T02:58:21;98935.38;;;6.09;84.66
46448;BME280;32145;50.390;30.778;2024-03-29T03:01:19;98935.81;;;6.06;84.23
46448;BME280;32145;50.390;30.778;2024-03-29T03:04:15;98942.47;;;6.03;84.57
46448;BME280;32145;50.390;30.778;2024-03-29T03:07:11;98943.72;;;6.01;84.25
46448;BME280;32145;50.390;30.778;2024-03-29T03:10:06;98945.00;;;5.98;84.42
46448;BME280;32145;50.390;30.778;2024-03-29T03:13:00;98938.78;;;5.98;83.92
46448;BME280;32145;50.390;30.778;2024-03-29T03:15:55;98942.53;;;5.97;84.13
46448;BME280;32145;50.390;30.778;2024-03-29T03:18:51;98937.16;;;5.97;84.19
46448;BME280;32145;50.390;30.778;2024-03-29T03:21:48;98938.00;;;5.97;84.20
46448;BME280;32145;50.390;30.778;2024-03-29T03:24:46;98943.16;;;5.99;83.96
46448;BME280;32145;50.390;30.778;2024-03-29T03:27:42;98951.22;;;5.99;84.07
46448;BME280;32145;50.390;30.778;2024-03-29T03:30:39;98955.53;;;6.00;83.97
46448;BME280;32145;50.390;30.778;2024-03-29T03:33:35;98953.69;;;6.00;83.82
46448;BME280;32145;50.390;30.778;2024-03-29T03:36:33;98953.84;;;6.05;83.85
46448;BME280;32145;50.390;30.778;2024-03-29T03:39:29;98955.72;;;6.05;83.81
46448;BME280;32145;50.390;30.778;2024-03-29T03:42:25;98958.19;;;6.06;84.00
46448;BME280;32145;50.390;30.778;2024-03-29T03:45:22;98961.09;;;6.05;84.34
46448;BME280;32145;50.390;30.778;2024-03-29T03:48:16;98963.56;;;6.06;84.18
46448;BME280;32145;50.390;30.778;2024-03-29T03:51:10;98960.03;;;6.06;83.57
46448;BME280;32145;50.390;30.778;2024-03-29T03:54:06;98965.19;;;6.08;83.75
46448;BME280;32145;50.390;30.778;2024-03-29T03:57:01;98964.41;;;6.07;84.11
46448;BME280;32145;50.390;30.778;2024-03-29T03:59:55;98965.66;;;6.04;83.83
46448;BME280;32145;50.390;30.778;2024-03-29T04:02:50;98963.78;;;6.05;83.29
46448;BME280;32145;50.390;30.778;2024-03-29T04:05:44;98961.94;;;6.05;84.06
46448;BME280;32145;50.390;30.778;2024-03-29T04:08:38;98953.41;;;6.09;84.00
46448;BME280;32145;50.390;30.778;2024-03-29T04:11:34;98947.94;;;6.15;84.04
46448;BME280;32145;50.390;30.778;2024-03-29T04:14:28;98946.34;;;6.26;83.44
46448;BME280;32145;50.390;30.778;2024-03-29T04:17:23;98946.13;;;6.40;83.60
46448;BME280;32145;50.390;30.778;2024-03-29T04:20:17;98945.34;;;6.51;83.89
46448;BME280;32145;50.390;30.778;2024-03-29T04:23:11;98953.47;;;6.63;83.30
46448;BME280;32145;50.390;30.778;2024-03-29T04:26:05;98954.78;;;6.73;84.01
46448;BME280;32145;50.390;30.778;2024-03-29T04:29:01;98949.28;;;6.79;83.65
46448;BME280;32145;50.390;30.778;2024-03-29T04:31:55;98944.03;;;6.85;83.04
46448;BME280;32145;50.390;30.778;2024-03-29T04:34:50;98945.00;;;6.90;83.36
46448;BME280;32145;50.390;30.778;2024-03-29T04:37:46;98943.47;;;6.94;82.55
46448;BME280;32145;50.390;30.778;2024-03-29T04:40:43;98950.25;;;6.97;82.76
46448;BME280;32145;50.390;30.778;2024-03-29T04:43:37;98955.66;;;6.97;82.81
46448;BME280;32145;50.390;30.778;2024-03-29T04:46:33;98951.44;;;7.01;82.44
46448;BME280;32145;50.390;30.778;2024-03-29T04:49:27;98949.31;;;7.03;82.58
46448;BME280;32145;50.390;30.778;2024-03-29T04:52:21;98951.56;;;7.06;82.50
46448;BME280;32145;50.390;30.778;2024-03-29T04:55:17;98947.34;;;7.11;82.26
46448;BME280;32145;50.390;30.778;2024-03-29T04:58:14;98941.25;;;7.15;82.28
46448;BME280;32145;50.390;30.778;2024-03-29T05:01:10;98956.84;;;7.25;81.92
46448;BME280;32145;50.390;30.778;2024-03-29T05:04:08;98958.84;;;7.30;82.07
46448;BME280;32145;50.390;30.778;2024-03-29T05:07:04;98957.56;;;7.32;81.59
46448;BME280;32145;50.390;30.778;2024-03-29T05:10:01;98960.81;;;7.34;81.44
46448;BME280;32145;50.390;30.778;2024-03-29T05:12:57;98962.47;;;7.35;81.80
46448;BME280;32145;50.390;30.778;2024-03-29T05:15:53;98960.34;;;7.38;81.39
46448;BME280;32145;50.390;30.778;2024-03-29T05:18:48;98963.16;;;7.43;81.16
46448;BME280;32145;50.390;30.778;2024-03-29T05:21:43;98956.22;;;7.47;81.20
46448;BME280;32145;50.390;30.778;2024-03-29T05:24:37;98950.13;;;7.52;81.12
46448;BME280;32145;50.390;30.778;2024-03-29T05:27:32;98945.91;;;7.56;81.44
46448;BME280;32145;50.390;30.778;2024-03-29T05:30:26;98949.22;;;7.58;80.85
46448;BME280;32145;50.390;30.778;2024-03-29T05:33:20;98945.22;;;7.60;81.20
46448;BME280;32145;50.390;30.778;2024-03-29T05:36:15;98945.56;;;7.64;80.88
46448;BME280;32145;50.390;30.778;2024-03-29T05:39:10;98941.56;;;7.67;80.75
46448;BME280;32145;50.390;30.778;2024-03-29T05:42:05;98939.22;;;7.70;80.69
46448;BME280;32145;50.390;30.778;2024-03-29T05:45:00;98950.34;;;7.74;80.75
46448;BME280;32145;50.390;30.778;2024-03-29T05:47:55;98949.28;;;7.75;80.26
46448;BME280;32145;50.390;30.778;2024-03-29T05:50:49;98947.19;;;7.77;80.13
46448;BME280;32145;50.390;30.778;2024-03-29T05:53:43;98952.09;;;7.80;80.05
46448;BME280;32145;50.390;30.778;2024-03-29T05:56:39;98953.25;;;7.84;80.26
46448;BME280;32145;50.390;30.778;2024-03-29T05:59:34;98954.91;;;7.85;80.12
46448;BME280;32145;50.390;30.778;2024-03-29T06:02:28;98936.00;;;7.85;79.88
46448;BME280;32145;50.390;30.778;2024-03-29T06:05:23;98949.50;;;7.85;80.36
46448;BME280;32145;50.390;30.778;2024-03-29T06:08:17;98953.84;;;7.86;80.09
46448;BME280;32145;50.390;30.778;2024-03-29T06:11:12;98950.66;;;7.90;80.09
46448;BME280;32145;50.390;30.778;2024-03-29T06:14:09;98955.59;;;7.93;79.73
46448;BME280;32145;50.390;30.778;2024-03-29T06:17:06;98963.44;;;7.94;79.48
46448;BME280;32145;50.390;30.778;2024-03-29T06:20:03;98951.34;;;7.97;79.50
46448;BME280;32145;50.390;30.778;2024-03-29T06:22:59;98935.47;;;8.00;79.49
46448;BME280;32145;50.390;30.778;2024-03-29T06:25:56;98985.38;;;7.98;79.22
46448;BME280;32145;50.390;30.778;2024-03-29T06:28:52;98990.78;;;7.98;79.74
46448;BME280;32145;50.390;30.778;2024-03-29T06:31:50;98989.72;;;7.99;79.45
46448;BME280;32145;50.390;30.778;2024-03-29T06:34:46;98986.53;;;8.02;79.43
46448;BME280;32145;50.390;30.778;2024-03-29T06:37:43;98989.34;;;8.07;79.21
46448;BME280;32145;50.390;30.778;2024-03-29T06:40:39;98983.47;;;8.10;79.07
46448;BME280;32145;50.390;30.778;2024-03-29T06:43:35;98987.09;;;8.16;79.10
46448;BME280;32145;50.390;30.778;2024-03-29T06:46:32;98992.84;;;8.20;78.97
46448;BME280;32145;50.390;30.778;2024-03-29T06:49:30;99001.28;;;8.23;78.86
46448;BME280;32145;50.390;30.778;2024-03-29T06:52:27;99034.03;;;8.27;78.63
46448;BME280;32145;50.390;30.778;2024-03-29T06:55:23;99040.00;;;8.29;78.35
46448;BME280;32145;50.390;30.778;2024-03-29T06:58:20;99022.84;;;8.35;77.73
46448;BME280;32145;50.390;30.778;2024-03-29T07:01:16;99035.00;;;8.50;77.49
46448;BME280;32145;50.390;30.778;2024-03-29T07:04:12;99020.56;;;8.56;76.82
46448;BME280;32145;50.390;30.778;2024-03-29T07:07:10;99022.28;;;8.62;76.35
46448;BME280;32145;50.390;30.778;2024-03-29T07:10:07;99025.09;;;8.68;75.68
46448;BME280;32145;50.390;30.778;2024-03-29T07:13:04;99017.16;;;8.78;75.34
46448;BME280;32145;50.390;30.778;2024-03-29T07:16:00;99027.34;;;8.88;74.74
46448;BME280;32145;50.390;30.778;2024-03-29T07:18:56;99035.31;;;8.95;73.97
46448;BME280;32145;50.390;30.778;2024-03-29T07:21:53;99034.81;;;8.98;74.05
46448;BME280;32145;50.390;30.778;2024-03-29T07:24:52;99028.91;;;9.01;73.40
46448;BME280;32145;50.390;30.778;2024-03-29T07:27:49;99029.75;;;9.01;73.68
46448;BME280;32145;50.390;30.778;2024-03-29T07:30:45;99024.50;;;8.95;73.51
46448;BME280;32145;50.390;30.778;2024-03-29T07:33:43;99022.53;;;8.90;74.33
46448;BME280;32145;50.390;30.778;2024-03-29T07:36:39;99035.94;;;8.85;74.67
46448;BME280;32145;50.390;30.778;2024-03-29T07:39:36;99049.34;;;8.80;75.19
46448;BME280;32145;50.390;30.778;2024-03-29T07:42:32;99039.28;;;8.75;75.59
46448;BME280;32145;50.390;30.778;2024-03-29T07:45:28;99034.94;;;8.74;76.21
46448;BME280;32145;50.390;30.778;2024-03-29T07:48:18;99040.34;;;8.74;76.07
46448;BME280;32145;50.390;30.778;2024-03-29T07:51:12;99042.00;;;8.75;76.66
46448;BME280;32145;50.390;30.778;2024-03-29T07:54:03;99056.47;;;8.69;76.82
46448;BME280;32145;50.390;30.778;2024-03-29T07:56:57;99028.75;;;8.61;77.54
46448;BME280;32145;50.390;30.778;2024-03-29T07:59:53;99021.97;;;8.59;77.53
46448;BME280;32145;50.390;30.778;2024-03-29T08:02:49;99031.84;;;8.53;77.70
46448;BME280;32145;50.390;30.778;2024-03-29T08:05:56;99045.81;;;8.50;78.69
46448;BME280;32145;50.390;30.778;2024-03-29T08:08:52;99041.25;;;8.38;78.97
46448;BME280;32145;50.390;30.778;2024-03-29T08:11:50;99037.66;;;8.33;78.72
46448;BME280;32145;50.390;30.778;2024-03-29T08:14:38;99042.22;;;8.32;78.91
46448;BME280;32145;50.390;30.778;2024-03-29T08:17:36;99037.50;;;8.40;79.40
46448;BME280;32145;50.390;30.778;2024-03-29T08:20:30;99029.16;;;8.41;79.84
46448;BME280;32145;50.390;30.778;2024-03-29T08:23:19;99024.56;;;8.42;79.78
46448;BME280;32145;50.390;30.778;2024-03-29T08:26:15;99016.00;;;8.45;80.04
46448;BME280;32145;50.390;30.778;2024-03-29T08:29:11;99027.13;;;8.48;79.72
46448;BME280;32145;50.390;30.778;2024-03-29T08:32:08;99005.78;;;8.47;79.78
46448;BME280;32145;50.390;30.778;2024-03-29T08:35:06;99009.53;;;8.46;80.01
46448;BME280;32145;50.390;30.778;2024-03-29T08:38:02;99001.41;;;8.46;80.18
46448;BME280;32145;50.390;30.778;2024-03-29T08:40:53;99003.09;;;8.47;79.99
46448;BME280;32145;50.390;30.778;2024-03-29T08:43:47;98999.31;;;8.48;80.07
46448;BME280;32145;50.390;30.778;2024-03-29T08:46:41;99004.25;;;8.51;80.15
46448;BME280;32145;50.390;30.778;2024-03-29T08:49:36;98994.63;;;8.55;80.29
46448;BME280;32145;50.390;30.778;2024-03-29T08:52:33;99001.19;;;8.59;80.77
46448;BME280;32145;50.390;30.778;2024-03-29T08:55:31;98991.59;;;8.69;81.99
46448;BME280;32145;50.390;30.778;2024-03-29T08:58:20;98984.47;;;8.62;80.08
46448;BME280;32145;50.390;30.778;2024-03-29T09:01:16;98972.63;;;8.63;80.29
46448;BME280;32145;50.390;30.778;2024-03-29T09:04:06;98973.66;;;8.62;79.80
46448;BME280;32145;50.390;30.778;2024-03-29T09:06:54;98968.25;;;8.62;80.05
46448;BME280;32145;50.390;30.778;2024-03-29T09:09:52;98962.28;;;8.60;80.08
46448;BME280;32145;50.390;30.778;2024-03-29T09:12:48;98945.75;;;8.57;80.12
46448;BME280;32145;50.390;30.778;2024-03-29T09:15:45;98955.50;;;8.58;80.50
46448;BME280;32145;50.390;30.778;2024-03-29T09:18:39;98945.00;;;8.61;80.36
46448;BME280;32145;50.390;30.778;2024-03-29T09:21:35;98943.69;;;8.64;80.34
46448;BME280;32145;50.390;30.778;2024-03-29T09:24:32;98935.94;;;8.68;80.49
46448;BME280;32145;50.390;30.778;2024-03-29T09:27:32;98934.38;;;8.72;80.66
46448;BME280;32145;50.390;30.778;2024-03-29T09:30:26;98930.28;;;8.69;80.32
46448;BME280;32145;50.390;30.778;2024-03-29T09:33:22;98936.50;;;8.70;80.71
46448;BME280;32145;50.390;30.778;2024-03-29T09:36:21;98942.72;;;8.70;81.08
46448;BME280;32145;50.390;30.778;2024-03-29T09:39:15;98948.97;;;8.71;81.68
46448;BME280;32145;50.390;30.778;2024-03-29T09:42:15;98943.22;;;8.84;81.42
46448;BME280;32145;50.390;30.778;2024-03-29T09:45:13;98939.03;;;8.94;81.10
46448;BME280;32145;50.390;30.778;2024-03-29T09:48:10;98935.03;;;8.96;80.78
46448;BME280;32145;50.390;30.778;2024-03-29T09:51:09;98927.81;;;9.02;81.42
46448;BME280;32145;50.390;30.778;2024-03-29T09:54:06;98944.03;;;9.02;82.04
46448;BME280;32145;50.390;30.778;2024-03-29T09:57:03;98942.41;;;9.01;81.88
46448;BME280;32145;50.390;30.778;2024-03-29T09:59:58;98934.53;;;9.17;81.91
46448;BME280;32145;50.390;30.778;2024-03-29T10:02:56;98930.66;;;9.47;82.75
46448;BME280;32145;50.390;30.778;2024-03-29T10:05:53;98936.53;;;9.83;82.65
46448;BME280;32145;50.390;30.778;2024-03-29T10:08:41;98931.47;;;10.14;82.44
46448;BME280;32145;50.390;30.778;2024-03-29T10:11:37;98936.06;;;10.41;81.79
46448;BME280;32145;50.390;30.778;2024-03-29T10:14:32;98937.94;;;10.63;81.22
46448;BME280;32145;50.390;30.778;2024-03-29T10:17:30;98941.28;;;10.76;81.01
46448;BME280;32145;50.390;30.778;2024-03-29T10:20:29;98948.00;;;11.01;80.88
46448;BME280;32145;50.390;30.778;2024-03-29T10:23:25;98945.16;;;11.18;79.92
46448;BME280;32145;50.390;30.778;2024-03-29T10:26:21;98938.19;;;11.32;79.01
46448;BME280;32145;50.390;30.778;2024-03-29T10:29:18;98939.03;;;11.38;78.59
46448;BME280;32145;50.390;30.778;2024-03-29T10:32:14;98940.41;;;11.36;78.58
46448;BME280;32145;50.390;30.778;2024-03-29T10:35:10;98939.81;;;11.33;78.91
46448;BME280;32145;50.390;30.778;2024-03-29T10:38:11;98942.88;;;11.42;78.88
46448;BME280;32145;50.390;30.778;2024-03-29T10:41:00;98941.53;;;11.50;79.03
46448;BME280;32145;50.390;30.778;2024-03-29T10:43:57;98953.47;;;11.44;78.17
46448;BME280;32145;50.390;30.778;2024-03-29T10:46:56;98947.78;;;11.45;78.33
46448;BME280;32145;50.390;30.778;2024-03-29T10:49:53;98946.66;;;11.41;78.07
46448;BME280;32145;50.390;30.778;2024-03-29T10:52:51;98954.03;;;11.08;78.33
46448;BME280;32145;50.390;30.778;2024-03-29T10:55:53;98962.44;;;10.74;78.67
46448;BME280;32145;50.390;30.778;2024-03-29T10:58:55;98959.50;;;10.53;79.41
46448;BME280;32145;50.390;30.778;2024-03-29T11:01:59;98969.91;;;10.39;80.18
46448;BME280;32145;50.390;30.778;2024-03-29T11:04:50;98967.09;;;10.28;80.09
46448;BME280;32145;50.390;30.778;2024-03-29T11:07:45;98964.59;;;10.22;80.69
46448;BME280;32145;50.390;30.778;2024-03-29T11:10:42;98969.94;;;10.16;80.68
46448;BME280;32145;50.390;30.778;2024-03-29T11:13:46;98976.94;;;10.12;80.70
46448;BME280;32145;50.390;30.778;2024-03-29T11:16:35;98977.97;;;10.06;80.91
46448;BME280;32145;50.390;30.778;2024-03-29T11:19:34;98971.41;;;10.02;80.84
46448;BME280;32145;50.390;30.778;2024-03-29T11:22:23;98985.19;;;10.00;81.09
46448;BME280;32145;50.390;30.778;2024-03-29T11:25:19;98990.53;;;9.95;81.29
46448;BME280;32145;50.390;30.778;2024-03-29T11:28:22;98992.44;;;9.95;81.54
46448;BME280;32145;50.390;30.778;2024-03-29T11:31:24;98995.63;;;9.91;81.74
46448;BME280;32145;50.390;30.778;2024-03-29T11:34:18;99003.75;;;9.91;81.43
46448;BME280;32145;50.390;30.778;2024-03-29T11:37:14;99002.13;;;9.90;81.76
46448;BME280;32145;50.390;30.778;2024-03-29T11:40:11;99005.97;;;9.95;81.82
46448;BME280;32145;50.390;30.778;2024-03-29T11:43:07;99016.03;;;9.99;81.63
46448;BME280;32145;50.390;30.778;2024-03-29T11:45:58;99018.06;;;10.09;81.92
46448;BME280;32145;50.390;30.778;2024-03-29T11:48:50;99017.69;;;10.23;82.02
46448;BME280;32145;50.390;30.778;2024-03-29T11:51:46;99021.63;;;10.37;81.54
46448;BME280;32145;50.390;30.778;2024-03-29T11:54:38;99025.59;;;10.47;81.37
46448;BME280;32145;50.390;30.778;2024-03-29T11:57:32;99035.63;;;10.51;80.72
46448;BME280;32145;50.390;30.778;2024-03-29T12:00:20;99037.59;;;10.56;80.74
46448;BME280;32145;50.390;30.778;2024-03-29T12:03:17;99034.25;;;10.49;80.97
46448;BME280;32145;50.390;30.778;2024-03-29T12:06:14;99039.56;;;10.38;80.86
46448;BME280;32145;50.390;30.778;2024-03-29T12:09:11;99036.56;;;10.17;80.50
46448;BME280;32145;50.390;30.778;2024-03-29T12:12:08;99041.63;;;10.09;80.83
46448;BME280;32145;50.390;30.778;2024-03-29T12:15:05;99040.25;;;10.06;81.10
46448;BME280;32145;50.390;30.778;2024-03-29T12:18:03;99039.66;;;10.04;81.49
46448;BME280;32145;50.390;30.778;2024-03-29T12:21:00;99040.16;;;10.01;81.19
46448;BME280;32145;50.390;30.778;2024-03-29T12:23:57;99044.63;;;10.12;81.63
46448;BME280;32145;50.390;30.778;2024-03-29T12:26:55;99050.19;;;10.23;81.69
46448;BME280;32145;50.390;30.778;2024-03-29T12:29:45;99049.41;;;10.27;81.68
46448;BME280;32145;50.390;30.778;2024-03-29T12:32:40;99055.72;;;10.33;81.17
46448;BME280;32145;50.390;30.778;2024-03-29T12:35:37;99064.88;;;10.27;80.84
46448;BME280;32145;50.390;30.778;2024-03-29T12:38:25;99071.72;;;10.12;80.89
46448;BME280;32145;50.390;30.778;2024-03-29T12:41:22;99070.59;;;10.08;80.66
46448;BME280;32145;50.390;30.778;2024-03-29T12:44:19;99087.66;;;10.09;80.87
46448;BME280;32145;50.390;30.778;2024-03-29T12:47:08;99093.50;;;10.00;80.43
46448;BME280;32145;50.390;30.778;2024-03-29T12:50:04;99098.53;;;9.91;80.84
46448;BME280;32145;50.390;30.778;2024-03-29T12:53:06;99106.56;;;9.86;81.21
46448;BME280;32145;50.390;30.778;2024-03-29T12:56:03;99108.19;;;9.87;81.41
46448;BME280;32145;50.390;30.778;2024-03-29T12:59:00;99116.41;;;9.92;81.35
46448;BME280;32145;50.390;30.778;2024-03-29T13:01:58;99122.88;;;9.91;81.43
46448;BME280;32145;50.390;30.778;2024-03-29T13:04:46;99130.41;;;9.89;81.83
46448;BME280;32145;50.390;30.778;2024-03-29T13:07:43;99129.63;;;9.89;81.64
46448;BME280;32145;50.390;30.778;2024-03-29T13:10:39;99145.53;;;9.85;81.84
46448;BME280;32145;50.390;30.778;2024-03-29T13:13:35;99154.72;;;9.84;81.52
46448;BME280;32145;50.390;30.778;2024-03-29T13:16:27;99161.44;;;9.82;81.63
46448;BME280;32145;50.390;30.778;2024-03-29T13:19:21;99173.34;;;9.80;81.58
46448;BME280;32145;50.390;30.778;2024-03-29T13:22:10;99170.28;;;9.77;82.13
46448;BME280;32145;50.390;30.778;2024-03-29T13:25:07;99174.56;;;9.73;81.44
46448;BME280;32145;50.390;30.778;2024-03-29T13:28:05;99170.28;;;9.77;82.03
46448;BME280;32145;50.390;30.778;2024-03-29T13:30:59;99174.56;;;9.90;82.03
46448;BME280;32145;50.390;30.778;2024-03-29T13:33:49;99174.50;;;10.02;82.18
46448;BME280;32145;50.390;30.778;2024-03-29T13:36:46;99176.38;;;10.18;81.98
46448;BME280;32145;50.390;30.778;2024-03-29T13:39:42;99191.34;;;10.43;81.47
46448;BME280;32145;50.390;30.778;2024-03-29T13:42:32;99196.81;;;10.66;81.11
46448;BME280;32145;50.390;30.778;2024-03-29T13:45:26;99208.88;;;10.98;80.87
46448;BME280;32145;50.390;30.778;2024-03-29T13:48:23;99218.63;;;11.21;79.57
46448;BME280;32145;50.390;30.778;2024-03-29T13:51:20;99215.69;;;11.23;78.31
46448;BME280;32145;50.390;30.778;2024-03-29T13:54:16;99220.28;;;11.22;78.37
46448;BME280;32145;50.390;30.778;2024-03-29T13:57:14;99220.97;;;11.12;78.13
46448;BME280;32145;50.390;30.778;2024-03-29T14:00:03;99229.44;;;11.16;77.95
46448;BME280;32145;50.390;30.778;2024-03-29T14:02:53;99216.75;;;11.21;77.87
46448;BME280;32145;50.390;30.778;2024-03-29T14:05:48;99219.75;;;11.25;77.34
46448;BME280;32145;50.390;30.778;2024-03-29T14:08:37;99221.22;;;11.33;77.88
46448;BME280;32145;50.390;30.778;2024-03-29T14:11:28;99226.53;;;11.50;77.60
46448;BME280;32145;50.390;30.778;2024-03-29T14:14:16;99233.25;;;11.70;76.95
46448;BME280;32145;50.390;30.778;2024-03-29T14:17:12;99233.00;;;11.71;75.40
46448;BME280;32145;50.390;30.778;2024-03-29T14:20:10;99233.81;;;11.72;74.92
46448;BME280;32145;50.390;30.778;2024-03-29T14:23:00;99238.31;;;11.89;75.05
46448;BME280;32145;50.390;30.778;2024-03-29T14:25:56;99247.09;;;12.01;74.67
46448;BME280;32145;50.390;30.778;2024-03-29T14:28:50;99246.38;;;12.06;74.45
46448;BME280;32145;50.390;30.778;2024-03-29T14:31:39;99233.91;;;12.10;73.78
46448;BME280;32145;50.390;30.778;2024-03-29T14:34:29;99246.44;;;12.16;73.87
46448;BME280;32145;50.390;30.778;2024-03-29T14:37:23;99237.13;;;12.07;72.48
46448;BME280;32145;50.390;30.778;2024-03-29T14:40:18;99244.38;;;12.01;72.00
46448;BME280;32145;50.390;30.778;2024-03-29T14:43:08;99258.81;;;12.02;71.33
46448;BME280;32145;50.390;30.778;2024-03-29T14:45:58;99271.53;;;11.96;71.05
46448;BME280;32145;50.390;30.778;2024-03-29T14:48:52;99274.78;;;11.98;71.26
46448;BME280;32145;50.390;30.778;2024-03-29T14:51:46;99279.66;;;11.96;71.08
46448;BME280;32145;50.390;30.778;2024-03-29T14:54:43;99292.56;;;12.06;70.98
46448;BME280;32145;50.390;30.778;2024-03-29T14:57:40;99294.13;;;12.02;70.16
46448;BME280;32145;50.390;30.778;2024-03-29T15:00:35;99300.06;;;11.98;69.99
46448;BME280;32145;50.390;30.778;2024-03-29T15:03:30;99306.88;;;12.01;70.42
46448;BME280;32145;50.390;30.778;2024-03-29T15:06:24;99325.00;;;11.95;69.76
46448;BME280;32145;50.390;30.778;2024-03-29T15:09:18;99336.09;;;11.89;70.27
46448;BME280;32145;50.390;30.778;2024-03-29T15:12:07;99340.00;;;11.76;69.81
46448;BME280;32145;50.390;30.778;2024-03-29T15:15:06;99347.44;;;11.58;70.41
46448;BME280;32145;50.390;30.778;2024-03-29T15:18:02;99351.59;;;11.43;70.10
46448;BME280;32145;50.390;30.778;2024-03-29T15:20:53;99357.41;;;11.30;70.87
46448;BME280;32145;50.390;30.778;2024-03-29T15:23:43;99355.94;;;11.22;70.67
46448;BME280;32145;50.390;30.778;2024-03-29T15:26:31;99364.25;;;11.15;70.79